sensor_id;sensor_type;location;lat;lon;timestamp;P1;durP1;ratioP1;P2;durP2;ratioP2
41685;SDS011;27370;42.764;23.432;2024-01-30T00:01:18;3.97;;;2.78;;
41685;SDS011;27370;42.764;23.432;2024-01-30T00:03:44;6.35;;;3.90;;
41685;SDS011;27370;42.764;23.432;2024-01-30T00:06:09;3.95;;;1.88;;
41685;SDS011;27370;42.764;23.432;2024-01-30T00:08:35;6.05;;;3.08;;
41685;SDS011;27370;42.764;23.432;2024-01-30T00:11:00;4.07;;;2.25;;
41685;SDS011;27370;42.764;23.432;2024-01-30T00:13:26;2.25;;;1.35;;
41685;SDS011;27370;42.764;23.432;2024-01-30T00:15:51;5.25;;;1.90;;
41685;SDS011;27370;42.764;23.432;2024-01-30T00:18:16;6.55;;;3.10;;
41685;SDS011;27370;42.764;23.432;2024-01-30T00:20:43;2.92;;;2.22;;
41685;SDS011;27370;42.764;23.432;2024-01-30T00:23:09;4.40;;;2.95;;
41685;SDS011;27370;42.764;23.432;2024-01-30T00:25:34;4.95;;;3.03;;
41685;SDS011;27370;42.764;23.432;2024-01-30T00:28:00;4.10;;;2.47;;
41685;SDS011;27370;42.764;23.432;2024-01-30T00:30:25;3.10;;;1.55;;
41685;SDS011;27370;42.764;23.432;2024-01-30T00:32:51;10.60;;;5.10;;
41685;SDS011;27370;42.764;23.432;2024-01-30T00:35:16;11.60;;;4.97;;
41685;SDS011;27370;42.764;23.432;2024-01-30T00:37:42;5.60;;;2.85;;
41685;SDS011;27370;42.764;23.432;2024-01-30T00:40:08;4.68;;;2.30;;
41685;SDS011;27370;42.764;23.432;2024-01-30T00:42:35;4.75;;;2.05;;
41685;SDS011;27370;42.764;23.432;2024-01-30T00:45:00;5.60;;;2.25;;
41685;SDS011;27370;42.764;23.432;2024-01-30T00:47:26;3.80;;;2.08;;
41685;SDS011;27370;42.764;23.432;2024-01-30T00:49:51;3.22;;;1.92;;
41685;SDS011;27370;42.764;23.432;2024-01-30T00:52:17;6.03;;;3.25;;
41685;SDS011;27370;42.764;23.432;2024-01-30T00:54:42;4.43;;;2.25;;
41685;SDS011;27370;42.764;23.432;2024-01-30T00:57:08;8.52;;;3.00;;
41685;SDS011;27370;42.764;23.432;2024-01-30T00:59:33;3.03;;;2.30;;
41685;SDS011;27370;42.764;23.432;2024-01-30T01:01:59;4.18;;;2.33;;
41685;SDS011;27370;42.764;23.432;2024-01-30T01:04:24;4.20;;;2.55;;
41685;SDS011;27370;42.764;23.432;2024-01-30T01:06:51;5.88;;;3.42;;
41685;SDS011;27370;42.764;23.432;2024-01-30T01:09:17;3.63;;;2.13;;
41685;SDS011;27370;42.764;23.432;2024-01-30T01:11:42;4.75;;;2.30;;
41685;SDS011;27370;42.764;23.432;2024-01-30T01:14:08;3.95;;;2.47;;
41685;SDS011;27370;42.764;23.432;2024-01-30T01:16:33;3.35;;;2.20;;
41685;SDS011;27370;42.764;23.432;2024-01-30T01:18:59;3.78;;;2.05;;
41685;SDS011;27370;42.764;23.432;2024-01-30T01:21:25;6.40;;;3.38;;
41685;SDS011;27370;42.764;23.432;2024-01-30T01:23:51;4.32;;;2.70;;
41685;SDS011;27370;42.764;23.432;2024-01-30T01:26:16;5.22;;;2.92;;
41685;SDS011;27370;42.764;23.432;2024-01-30T01:28:41;6.40;;;3.42;;
41685;SDS011;27370;42.764;23.432;2024-01-30T01:31:07;5.28;;;3.08;;
41685;SDS011;27370;42.764;23.432;2024-01-30T01:33:33;6.78;;;3.15;;
41685;SDS011;27370;42.764;23.432;2024-01-30T01:35:59;5.03;;;3.28;;
41685;SDS011;27370;42.764;23.432;2024-01-30T01:38:24;8.30;;;3.20;;
41685;SDS011;27370;42.764;23.432;2024-01-30T01:40:50;7.90;;;3.38;;
41685;SDS011;27370;42.764;23.432;2024-01-30T01:43:16;4.22;;;2.85;;
41685;SDS011;27370;42.764;23.432;2024-01-30T01:45:41;3.20;;;1.95;;
41685;SDS011;27370;42.764;23.432;2024-01-30T01:48:07;3.90;;;2.22;;
41685;SDS011;27370;42.764;23.432;2024-01-30T01:50:34;4.63;;;2.70;;
41685;SDS011;27370;42.764;23.432;2024-01-30T01:52:59;2.90;;;2.15;;
41685;SDS011;27370;42.764;23.432;2024-01-30T01:55:25;2.45;;;2.03;;
41685;SDS011;27370;42.764;23.432;2024-01-30T01:57:53;3.47;;;1.90;;
41685;SDS011;27370;42.764;23.432;2024-01-30T02:00:19;3.33;;;2.60;;
41685;SDS011;27370;42.764;23.432;2024-01-30T02:02:45;3.90;;;2.45;;
41685;SDS011;27370;42.764;23.432;2024-01-30T02:05:11;4.90;;;3.03;;
41685;SDS011;27370;42.764;23.432;2024-01-30T02:07:37;3.03;;;1.77;;
41685;SDS011;27370;42.764;23.432;2024-01-30T02:10:02;2.72;;;2.00;;
41685;SDS011;27370;42.764;23.432;2024-01-30T02:12:29;2.95;;;1.65;;
41685;SDS011;27370;42.764;23.432;2024-01-30T02:14:54;3.17;;;2.10;;
41685;SDS011;27370;42.764;23.432;2024-01-30T02:17:20;3.22;;;2.03;;
41685;SDS011;27370;42.764;23.432;2024-01-30T02:19:46;4.50;;;2.13;;
41685;SDS011;27370;42.764;23.432;2024-01-30T02:22:11;7.25;;;3.58;;
41685;SDS011;27370;42.764;23.432;2024-01-30T02:24:38;5.97;;;3.05;;
41685;SDS011;27370;42.764;23.432;2024-01-30T02:27:03;9.90;;;4.95;;
41685;SDS011;27370;42.764;23.432;2024-01-30T02:29:29;11.77;;;5.35;;
41685;SDS011;27370;42.764;23.432;2024-01-30T02:31:54;8.07;;;3.97;;
41685;SDS011;27370;42.764;23.432;2024-01-30T02:34:20;5.57;;;2.97;;
41685;SDS011;27370;42.764;23.432;2024-01-30T02:36:46;3.58;;;2.10;;
41685;SDS011;27370;42.764;23.432;2024-01-30T02:39:11;2.75;;;1.98;;
41685;SDS011;27370;42.764;23.432;2024-01-30T02:41:37;6.63;;;2.60;;
41685;SDS011;27370;42.764;23.432;2024-01-30T02:44:05;4.88;;;2.25;;
41685;SDS011;27370;42.764;23.432;2024-01-30T02:46:31;2.78;;;1.52;;
41685;SDS011;27370;42.764;23.432;2024-01-30T02:48:56;5.15;;;2.63;;
41685;SDS011;27370;42.764;23.432;2024-01-30T02:51:22;3.10;;;1.77;;
41685;SDS011;27370;42.764;23.432;2024-01-30T02:53:47;4.47;;;1.98;;
41685;SDS011;27370;42.764;23.432;2024-01-30T02:56:13;3.13;;;1.90;;
41685;SDS011;27370;42.764;23.432;2024-01-30T02:58:41;4.60;;;2.03;;
41685;SDS011;27370;42.764;23.432;2024-01-30T03:01:07;4.40;;;2.50;;
41685;SDS011;27370;42.764;23.432;2024-01-30T03:03:33;5.05;;;2.28;;
41685;SDS011;27370;42.764;23.432;2024-01-30T03:06:01;3.22;;;1.63;;
41685;SDS011;27370;42.764;23.432;2024-01-30T03:08:27;2.90;;;1.92;;
41685;SDS011;27370;42.764;23.432;2024-01-30T03:10:52;2.40;;;1.77;;
41685;SDS011;27370;42.764;23.432;2024-01-30T03:13:18;4.75;;;1.85;;
41685;SDS011;27370;42.764;23.432;2024-01-30T03:15:43;5.28;;;2.60;;
41685;SDS011;27370;42.764;23.432;2024-01-30T03:18:09;3.72;;;1.98;;
41685;SDS011;27370;42.764;23.432;2024-01-30T03:20:34;5.43;;;2.53;;
41685;SDS011;27370;42.764;23.432;2024-01-30T03:23:00;3.15;;;1.92;;
41685;SDS011;27370;42.764;23.432;2024-01-30T03:25:25;2.80;;;1.65;;
41685;SDS011;27370;42.764;23.432;2024-01-30T03:27:51;2.90;;;1.42;;
41685;SDS011;27370;42.764;23.432;2024-01-30T03:30:17;4.32;;;1.48;;
41685;SDS011;27370;42.764;23.432;2024-01-30T03:32:42;1.98;;;1.42;;
41685;SDS011;27370;42.764;23.432;2024-01-30T03:35:09;2.00;;;0.93;;
41685;SDS011;27370;42.764;23.432;2024-01-30T03:37:34;2.17;;;1.38;;
41685;SDS011;27370;42.764;23.432;2024-01-30T03:40:00;3.67;;;1.77;;
41685;SDS011;27370;42.764;23.432;2024-01-30T03:42:26;2.17;;;1.40;;
41685;SDS011;27370;42.764;23.432;2024-01-30T03:44:51;2.88;;;1.55;;
41685;SDS011;27370;42.764;23.432;2024-01-30T03:47:18;1.73;;;1.05;;
41685;SDS011;27370;42.764;23.432;2024-01-30T03:49:44;1.92;;;1.10;;
41685;SDS011;27370;42.764;23.432;2024-01-30T03:52:10;2.60;;;1.42;;
41685;SDS011;27370;42.764;23.432;2024-01-30T03:54:35;2.78;;;1.52;;
41685;SDS011;27370;42.764;23.432;2024-01-30T03:57:01;3.45;;;2.00;;
41685;SDS011;27370;42.764;23.432;2024-01-30T03:59:27;2.85;;;1.00;;
41685;SDS011;27370;42.764;23.432;2024-01-30T04:01:52;3.65;;;2.08;;
41685;SDS011;27370;42.764;23.432;2024-01-30T04:04:18;2.17;;;1.52;;
41685;SDS011;27370;42.764;23.432;2024-01-30T04:06:44;1.88;;;1.50;;
41685;SDS011;27370;42.764;23.432;2024-01-30T04:09:10;1.90;;;1.48;;
41685;SDS011;27370;42.764;23.432;2024-01-30T04:11:36;2.35;;;1.63;;
41685;SDS011;27370;42.764;23.432;2024-01-30T04:14:01;2.53;;;1.67;;
41685;SDS011;27370;42.764;23.432;2024-01-30T04:16:27;3.03;;;1.80;;
41685;SDS011;27370;42.764;23.432;2024-01-30T04:18:53;2.97;;;1.80;;
41685;SDS011;27370;42.764;23.432;2024-01-30T04:21:20;2.92;;;1.85;;
41685;SDS011;27370;42.764;23.432;2024-01-30T04:23:46;2.72;;;1.35;;
41685;SDS011;27370;42.764;23.432;2024-01-30T04:26:12;4.18;;;2.80;;
41685;SDS011;27370;42.764;23.432;2024-01-30T04:28:37;3.92;;;2.45;;
41685;SDS011;27370;42.764;23.432;2024-01-30T04:31:02;2.72;;;2.13;;
41685;SDS011;27370;42.764;23.432;2024-01-30T04:33:28;4.32;;;1.88;;
41685;SDS011;27370;42.764;23.432;2024-01-30T04:35:53;4.00;;;1.85;;
41685;SDS011;27370;42.764;23.432;2024-01-30T04:38:19;5.85;;;3.45;;
41685;SDS011;27370;42.764;23.432;2024-01-30T04:40:44;5.65;;;2.90;;
41685;SDS011;27370;42.764;23.432;2024-01-30T04:43:10;4.72;;;2.47;;
41685;SDS011;27370;42.764;23.432;2024-01-30T04:45:35;4.20;;;1.80;;
41685;SDS011;27370;42.764;23.432;2024-01-30T04:48:01;4.78;;;2.38;;
41685;SDS011;27370;42.764;23.432;2024-01-30T04:50:26;4.30;;;1.88;;
41685;SDS011;27370;42.764;23.432;2024-01-30T04:52:51;4.40;;;2.65;;
41685;SDS011;27370;42.764;23.432;2024-01-30T04:55:17;3.78;;;2.10;;
41685;SDS011;27370;42.764;23.432;2024-01-30T04:57:42;2.53;;;1.52;;
41685;SDS011;27370;42.764;23.432;2024-01-30T05:00:08;2.50;;;1.63;;
41685;SDS011;27370;42.764;23.432;2024-01-30T05:02:34;2.90;;;1.58;;
41685;SDS011;27370;42.764;23.432;2024-01-30T05:04:59;2.80;;;1.33;;
41685;SDS011;27370;42.764;23.432;2024-01-30T05:07:25;2.38;;;1.38;;
41685;SDS011;27370;42.764;23.432;2024-01-30T05:09:51;1.90;;;1.58;;
41685;SDS011;27370;42.764;23.432;2024-01-30T05:12:16;3.00;;;0.90;;
41685;SDS011;27370;42.764;23.432;2024-01-30T05:14:41;2.28;;;1.45;;
41685;SDS011;27370;42.764;23.432;2024-01-30T05:17:07;4.88;;;1.83;;
41685;SDS011;27370;42.764;23.432;2024-01-30T05:19:35;3.35;;;1.50;;
41685;SDS011;27370;42.764;23.432;2024-01-30T05:22:00;2.53;;;1.58;;
41685;SDS011;27370;42.764;23.432;2024-01-30T05:24:26;3.58;;;2.13;;
41685;SDS011;27370;42.764;23.432;2024-01-30T05:26:51;4.15;;;1.83;;
41685;SDS011;27370;42.764;23.432;2024-01-30T05:29:17;4.68;;;1.50;;
41685;SDS011;27370;42.764;23.432;2024-01-30T05:31:42;3.95;;;1.42;;
41685;SDS011;27370;42.764;23.432;2024-01-30T05:34:08;3.03;;;1.90;;
41685;SDS011;27370;42.764;23.432;2024-01-30T05:36:34;3.15;;;1.60;;
41685;SDS011;27370;42.764;23.432;2024-01-30T05:38:59;1.92;;;1.25;;
41685;SDS011;27370;42.764;23.432;2024-01-30T05:41:25;3.17;;;1.83;;
41685;SDS011;27370;42.764;23.432;2024-01-30T05:43:51;3.45;;;1.23;;
41685;SDS011;27370;42.764;23.432;2024-01-30T05:46:16;1.25;;;0.90;;
41685;SDS011;27370;42.764;23.432;2024-01-30T05:48:42;3.08;;;1.20;;
41685;SDS011;27370;42.764;23.432;2024-01-30T05:51:07;2.65;;;1.60;;
41685;SDS011;27370;42.764;23.432;2024-01-30T05:53:33;1.23;;;1.00;;
41685;SDS011;27370;42.764;23.432;2024-01-30T05:55:59;1.75;;;0.93;;
41685;SDS011;27370;42.764;23.432;2024-01-30T05:58:26;1.85;;;0.82;;
41685;SDS011;27370;42.764;23.432;2024-01-30T06:00:52;1.83;;;1.40;;
41685;SDS011;27370;42.764;23.432;2024-01-30T06:03:17;1.98;;;1.05;;
41685;SDS011;27370;42.764;23.432;2024-01-30T06:05:43;1.58;;;0.90;;
41685;SDS011;27370;42.764;23.432;2024-01-30T06:08:08;3.53;;;2.05;;
41685;SDS011;27370;42.764;23.432;2024-01-30T06:10:34;2.08;;;1.25;;
41685;SDS011;27370;42.764;23.432;2024-01-30T06:12:59;1.80;;;1.13;;
41685;SDS011;27370;42.764;23.432;2024-01-30T06:15:25;2.58;;;1.83;;
41685;SDS011;27370;42.764;23.432;2024-01-30T06:17:51;2.70;;;1.52;;
41685;SDS011;27370;42.764;23.432;2024-01-30T06:20:16;2.42;;;1.15;;
41685;SDS011;27370;42.764;23.432;2024-01-30T06:22:42;4.82;;;2.67;;
41685;SDS011;27370;42.764;23.432;2024-01-30T06:25:07;2.15;;;1.48;;
41685;SDS011;27370;42.764;23.432;2024-01-30T06:27:33;3.10;;;1.83;;
41685;SDS011;27370;42.764;23.432;2024-01-30T06:29:58;1.35;;;1.10;;
41685;SDS011;27370;42.764;23.432;2024-01-30T06:32:24;2.25;;;1.35;;
41685;SDS011;27370;42.764;23.432;2024-01-30T06:34:49;1.98;;;1.25;;
41685;SDS011;27370;42.764;23.432;2024-01-30T06:37:15;4.45;;;2.30;;
41685;SDS011;27370;42.764;23.432;2024-01-30T06:39:40;3.45;;;1.63;;
41685;SDS011;27370;42.764;23.432;2024-01-30T06:42:06;2.78;;;2.05;;
41685;SDS011;27370;42.764;23.432;2024-01-30T06:44:31;4.22;;;1.92;;
41685;SDS011;27370;42.764;23.432;2024-01-30T06:46:57;3.95;;;2.25;;
41685;SDS011;27370;42.764;23.432;2024-01-30T06:49:22;2.08;;;1.90;;
41685;SDS011;27370;42.764;23.432;2024-01-30T06:51:48;4.40;;;2.20;;
41685;SDS011;27370;42.764;23.432;2024-01-30T06:54:13;2.50;;;2.05;;
41685;SDS011;27370;42.764;23.432;2024-01-30T06:56:39;2.28;;;1.20;;
41685;SDS011;27370;42.764;23.432;2024-01-30T06:59:04;1.95;;;1.50;;
41685;SDS011;27370;42.764;23.432;2024-01-30T07:01:30;4.97;;;2.35;;
41685;SDS011;27370;42.764;23.432;2024-01-30T07:03:56;3.47;;;2.00;;
41685;SDS011;27370;42.764;23.432;2024-01-30T07:06:22;2.42;;;1.30;;
41685;SDS011;27370;42.764;23.432;2024-01-30T07:08:48;4.18;;;2.22;;
41685;SDS011;27370;42.764;23.432;2024-01-30T07:11:18;4.07;;;2.20;;
41685;SDS011;27370;42.764;23.432;2024-01-30T07:13:47;2.17;;;1.35;;
41685;SDS011;27370;42.764;23.432;2024-01-30T07:16:14;5.38;;;2.05;;
41685;SDS011;27370;42.764;23.432;2024-01-30T07:18:39;2.33;;;1.83;;
41685;SDS011;27370;42.764;23.432;2024-01-30T07:21:05;3.67;;;2.33;;
41685;SDS011;27370;42.764;23.432;2024-01-30T07:23:30;2.95;;;2.05;;
41685;SDS011;27370;42.764;23.432;2024-01-30T07:25:56;6.18;;;2.90;;
41685;SDS011;27370;42.764;23.432;2024-01-30T07:28:21;3.35;;;2.10;;
41685;SDS011;27370;42.764;23.432;2024-01-30T07:30:47;12.60;;;3.58;;
41685;SDS011;27370;42.764;23.432;2024-01-30T07:33:13;6.05;;;3.50;;
41685;SDS011;27370;42.764;23.432;2024-01-30T07:35:39;6.25;;;2.05;;
41685;SDS011;27370;42.764;23.432;2024-01-30T07:38:04;2.08;;;1.45;;
41685;SDS011;27370;42.764;23.432;2024-01-30T07:40:30;3.83;;;2.13;;
41685;SDS011;27370;42.764;23.432;2024-01-30T07:42:55;5.72;;;2.55;;
41685;SDS011;27370;42.764;23.432;2024-01-30T07:45:21;8.75;;;4.90;;
41685;SDS011;27370;42.764;23.432;2024-01-30T07:47:51;4.88;;;2.45;;
41685;SDS011;27370;42.764;23.432;2024-01-30T07:50:16;8.48;;;4.07;;
41685;SDS011;27370;42.764;23.432;2024-01-30T07:52:42;7.57;;;2.70;;
41685;SDS011;27370;42.764;23.432;2024-01-30T07:55:08;7.57;;;3.38;;
41685;SDS011;27370;42.764;23.432;2024-01-30T07:57:34;5.05;;;2.25;;
41685;SDS011;27370;42.764;23.432;2024-01-30T08:00:03;4.22;;;2.65;;
41685;SDS011;27370;42.764;23.432;2024-01-30T08:02:32;5.10;;;1.83;;
41685;SDS011;27370;42.764;23.432;2024-01-30T08:04:57;8.38;;;2.33;;
41685;SDS011;27370;42.764;23.432;2024-01-30T08:07:23;2.67;;;1.67;;
41685;SDS011;27370;42.764;23.432;2024-01-30T08:09:48;3.58;;;2.45;;
41685;SDS011;27370;42.764;23.432;2024-01-30T08:12:14;3.15;;;1.65;;
41685;SDS011;27370;42.764;23.432;2024-01-30T08:14:39;4.30;;;2.60;;
41685;SDS011;27370;42.764;23.432;2024-01-30T08:17:06;3.15;;;2.15;;
41685;SDS011;27370;42.764;23.432;2024-01-30T08:19:32;4.20;;;1.58;;
41685;SDS011;27370;42.764;23.432;2024-01-30T08:21:58;6.85;;;2.15;;
41685;SDS011;27370;42.764;23.432;2024-01-30T08:24:23;4.47;;;2.10;;
41685;SDS011;27370;42.764;23.432;2024-01-30T08:26:49;3.38;;;2.45;;
41685;SDS011;27370;42.764;23.432;2024-01-30T08:29:14;5.50;;;2.92;;
41685;SDS011;27370;42.764;23.432;2024-01-30T08:31:40;4.05;;;2.20;;
41685;SDS011;27370;42.764;23.432;2024-01-30T08:34:05;3.63;;;1.00;;
41685;SDS011;27370;42.764;23.432;2024-01-30T08:36:31;8.93;;;2.50;;
41685;SDS011;27370;42.764;23.432;2024-01-30T08:38:56;5.90;;;2.42;;
41685;SDS011;27370;42.764;23.432;2024-01-30T08:41:22;3.10;;;1.77;;
41685;SDS011;27370;42.764;23.432;2024-01-30T08:43:47;7.05;;;3.80;;
41685;SDS011;27370;42.764;23.432;2024-01-30T08:46:13;6.72;;;3.42;;
41685;SDS011;27370;42.764;23.432;2024-01-30T08:48:38;5.85;;;3.20;;
41685;SDS011;27370;42.764;23.432;2024-01-30T08:51:04;2.83;;;1.63;;
41685;SDS011;27370;42.764;23.432;2024-01-30T08:53:33;5.13;;;2.67;;
41685;SDS011;27370;42.764;23.432;2024-01-30T08:55:59;4.80;;;2.70;;
41685;SDS011;27370;42.764;23.432;2024-01-30T08:58:24;3.55;;;2.17;;
41685;SDS011;27370;42.764;23.432;2024-01-30T09:00:49;2.88;;;2.42;;
41685;SDS011;27370;42.764;23.432;2024-01-30T09:03:16;5.53;;;3.00;;
41685;SDS011;27370;42.764;23.432;2024-01-30T09:05:42;4.57;;;3.00;;
41685;SDS011;27370;42.764;23.432;2024-01-30T09:08:07;5.38;;;2.65;;
41685;SDS011;27370;42.764;23.432;2024-01-30T09:10:33;3.33;;;2.03;;
41685;SDS011;27370;42.764;23.432;2024-01-30T09:12:58;3.45;;;2.10;;
41685;SDS011;27370;42.764;23.432;2024-01-30T09:15:24;6.75;;;3.10;;
41685;SDS011;27370;42.764;23.432;2024-01-30T09:17:49;7.70;;;2.95;;
41685;SDS011;27370;42.764;23.432;2024-01-30T09:20:15;3.70;;;2.42;;
41685;SDS011;27370;42.764;23.432;2024-01-30T09:22:41;5.32;;;2.53;;
41685;SDS011;27370;42.764;23.432;2024-01-30T09:25:06;6.50;;;3.47;;
41685;SDS011;27370;42.764;23.432;2024-01-30T09:27:32;5.43;;;3.30;;
41685;SDS011;27370;42.764;23.432;2024-01-30T09:29:57;2.35;;;1.48;;
41685;SDS011;27370;42.764;23.432;2024-01-30T09:32:23;3.42;;;2.22;;
41685;SDS011;27370;42.764;23.432;2024-01-30T09:34:48;4.10;;;1.65;;
41685;SDS011;27370;42.764;23.432;2024-01-30T09:37:14;3.35;;;2.22;;
41685;SDS011;27370;42.764;23.432;2024-01-30T09:39:40;1.98;;;1.25;;
41685;SDS011;27370;42.764;23.432;2024-01-30T09:44:40;3.97;;;1.98;;
41685;SDS011;27370;42.764;23.432;2024-01-30T09:47:08;4.47;;;1.55;;
41685;SDS011;27370;42.764;23.432;2024-01-30T09:49:35;5.50;;;3.80;;
41685;SDS011;27370;42.764;23.432;2024-01-30T09:52:01;4.50;;;3.20;;
41685;SDS011;27370;42.764;23.432;2024-01-30T09:54:30;3.83;;;1.90;;
41685;SDS011;27370;42.764;23.432;2024-01-30T09:56:57;6.03;;;1.88;;
41685;SDS011;27370;42.764;23.432;2024-01-30T09:59:23;3.17;;;2.05;;
41685;SDS011;27370;42.764;23.432;2024-01-30T10:01:49;4.38;;;2.20;;
41685;SDS011;27370;42.764;23.432;2024-01-30T10:04:15;2.88;;;1.52;;
41685;SDS011;27370;42.764;23.432;2024-01-30T10:06:41;2.97;;;2.00;;
41685;SDS011;27370;42.764;23.432;2024-01-30T10:09:07;2.42;;;1.27;;
41685;SDS011;27370;42.764;23.432;2024-01-30T10:11:33;2.78;;;1.63;;
41685;SDS011;27370;42.764;23.432;2024-01-30T10:13:59;2.38;;;1.13;;
41685;SDS011;27370;42.764;23.432;2024-01-30T10:16:25;4.20;;;2.33;;
41685;SDS011;27370;42.764;23.432;2024-01-30T10:18:50;3.00;;;2.05;;
41685;SDS011;27370;42.764;23.432;2024-01-30T10:21:16;2.33;;;1.83;;
41685;SDS011;27370;42.764;23.432;2024-01-30T10:23:43;2.92;;;1.25;;
41685;SDS011;27370;42.764;23.432;2024-01-30T10:26:09;1.73;;;1.10;;
41685;SDS011;27370;42.764;23.432;2024-01-30T10:28:35;3.47;;;1.63;;
41685;SDS011;27370;42.764;23.432;2024-01-30T10:31:02;2.22;;;1.60;;
41685;SDS011;27370;42.764;23.432;2024-01-30T10:33:31;2.85;;;1.52;;
41685;SDS011;27370;42.764;23.432;2024-01-30T10:35:58;3.13;;;1.67;;
41685;SDS011;27370;42.764;23.432;2024-01-30T10:38:27;2.78;;;1.73;;
41685;SDS011;27370;42.764;23.432;2024-01-30T10:40:56;1.05;;;0.90;;
41685;SDS011;27370;42.764;23.432;2024-01-30T10:43:22;2.25;;;1.35;;
41685;SDS011;27370;42.764;23.432;2024-01-30T10:45:49;1.77;;;1.33;;
41685;SDS011;27370;42.764;23.432;2024-01-30T10:48:16;2.92;;;1.83;;
41685;SDS011;27370;42.764;23.432;2024-01-30T10:50:42;2.30;;;1.58;;
41685;SDS011;27370;42.764;23.432;2024-01-30T10:53:08;3.17;;;1.75;;
41685;SDS011;27370;42.764;23.432;2024-01-30T10:55:35;1.98;;;1.33;;
41685;SDS011;27370;42.764;23.432;2024-01-30T10:58:01;2.42;;;1.63;;
41685;SDS011;27370;42.764;23.432;2024-01-30T11:00:27;3.00;;;1.92;;
41685;SDS011;27370;42.764;23.432;2024-01-30T11:02:53;5.18;;;1.48;;
41685;SDS011;27370;42.764;23.432;2024-01-30T11:05:26;2.78;;;1.75;;
41685;SDS011;27370;42.764;23.432;2024-01-30T11:07:52;2.55;;;2.08;;
41685;SDS011;27370;42.764;23.432;2024-01-30T11:10:18;2.15;;;1.40;;
41685;SDS011;27370;42.764;23.432;2024-01-30T11:12:45;2.13;;;1.63;;
41685;SDS011;27370;42.764;23.432;2024-01-30T11:15:18;3.38;;;1.67;;
41685;SDS011;27370;42.764;23.432;2024-01-30T11:20:22;3.00;;;1.25;;
41685;SDS011;27370;42.764;23.432;2024-01-30T11:22:49;4.05;;;2.13;;
41685;SDS011;27370;42.764;23.432;2024-01-30T11:25:17;2.88;;;1.65;;
41685;SDS011;27370;42.764;23.432;2024-01-30T11:27:46;6.60;;;3.10;;
41685;SDS011;27370;42.764;23.432;2024-01-30T11:30:24;4.45;;;2.65;;
41685;SDS011;27370;42.764;23.432;2024-01-30T11:33:10;4.85;;;4.43;;
41685;SDS011;27370;42.764;23.432;2024-01-30T11:35:37;3.00;;;1.77;;
41685;SDS011;27370;42.764;23.432;2024-01-30T11:38:07;3.90;;;2.47;;
41685;SDS011;27370;42.764;23.432;2024-01-30T11:40:33;4.80;;;2.00;;
41685;SDS011;27370;42.764;23.432;2024-01-30T11:43:00;4.43;;;2.30;;
41685;SDS011;27370;42.764;23.432;2024-01-30T11:45:30;4.03;;;2.10;;
41685;SDS011;27370;42.764;23.432;2024-01-30T11:47:56;4.10;;;1.85;;
41685;SDS011;27370;42.764;23.432;2024-01-30T11:50:22;3.65;;;2.13;;
41685;SDS011;27370;42.764;23.432;2024-01-30T11:52:48;4.30;;;2.47;;
41685;SDS011;27370;42.764;23.432;2024-01-30T11:55:14;6.70;;;2.35;;
41685;SDS011;27370;42.764;23.432;2024-01-30T11:57:40;4.25;;;2.72;;
41685;SDS011;27370;42.764;23.432;2024-01-30T12:00:06;4.80;;;2.42;;
41685;SDS011;27370;42.764;23.432;2024-01-30T12:02:39;5.93;;;2.35;;
41685;SDS011;27370;42.764;23.432;2024-01-30T12:05:05;3.47;;;2.35;;
41685;SDS011;27370;42.764;23.432;2024-01-30T12:07:31;2.88;;;1.92;;
41685;SDS011;27370;42.764;23.432;2024-01-30T12:09:57;5.32;;;2.20;;
41685;SDS011;27370;42.764;23.432;2024-01-30T12:12:26;5.07;;;2.55;;
41685;SDS011;27370;42.764;23.432;2024-01-30T12:14:52;4.88;;;2.20;;
41685;SDS011;27370;42.764;23.432;2024-01-30T12:17:28;3.25;;;1.88;;
41685;SDS011;27370;42.764;23.432;2024-01-30T12:20:04;3.15;;;2.35;;
41685;SDS011;27370;42.764;23.432;2024-01-30T12:22:40;3.40;;;2.42;;
41685;SDS011;27370;42.764;23.432;2024-01-30T12:27:38;6.88;;;2.97;;
41685;SDS011;27370;42.764;23.432;2024-01-30T12:30:08;3.97;;;2.42;;
41685;SDS011;27370;42.764;23.432;2024-01-30T12:32:35;5.88;;;3.05;;
41685;SDS011;27370;42.764;23.432;2024-01-30T12:35:01;4.45;;;2.63;;
41685;SDS011;27370;42.764;23.432;2024-01-30T12:37:27;4.80;;;3.17;;
41685;SDS011;27370;42.764;23.432;2024-01-30T12:39:54;5.05;;;2.92;;
41685;SDS011;27370;42.764;23.432;2024-01-30T12:42:20;5.70;;;3.42;;
41685;SDS011;27370;42.764;23.432;2024-01-30T12:44:49;5.28;;;3.97;;
41685;SDS011;27370;42.764;23.432;2024-01-30T12:47:14;6.90;;;3.67;;
41685;SDS011;27370;42.764;23.432;2024-01-30T12:49:44;6.05;;;2.70;;
41685;SDS011;27370;42.764;23.432;2024-01-30T12:52:13;7.28;;;2.72;;
41685;SDS011;27370;42.764;23.432;2024-01-30T12:54:40;4.00;;;2.40;;
41685;SDS011;27370;42.764;23.432;2024-01-30T12:57:06;6.03;;;2.72;;
41685;SDS011;27370;42.764;23.432;2024-01-30T12:59:32;3.88;;;2.40;;
41685;SDS011;27370;42.764;23.432;2024-01-30T13:01:58;10.13;;;2.70;;
41685;SDS011;27370;42.764;23.432;2024-01-30T13:04:25;3.83;;;2.55;;
41685;SDS011;27370;42.764;23.432;2024-01-30T13:06:51;5.57;;;3.10;;
41685;SDS011;27370;42.764;23.432;2024-01-30T13:09:16;3.67;;;2.15;;
41685;SDS011;27370;42.764;23.432;2024-01-30T13:11:42;5.47;;;3.25;;
41685;SDS011;27370;42.764;23.432;2024-01-30T13:14:07;4.55;;;2.90;;
41685;SDS011;27370;42.764;23.432;2024-01-30T13:16:32;4.07;;;2.63;;
41685;SDS011;27370;42.764;23.432;2024-01-30T13:18:58;5.95;;;3.33;;
41685;SDS011;27370;42.764;23.432;2024-01-30T13:21:26;31.55;;;6.50;;
41685;SDS011;27370;42.764;23.432;2024-01-30T13:23:51;9.65;;;5.75;;
41685;SDS011;27370;42.764;23.432;2024-01-30T13:26:19;3.47;;;2.50;;
41685;SDS011;27370;42.764;23.432;2024-01-30T13:28:45;19.60;;;10.43;;
41685;SDS011;27370;42.764;23.432;2024-01-30T13:31:10;10.25;;;4.07;;
41685;SDS011;27370;42.764;23.432;2024-01-30T13:33:35;5.70;;;2.72;;
41685;SDS011;27370;42.764;23.432;2024-01-30T13:36:01;10.77;;;5.75;;
41685;SDS011;27370;42.764;23.432;2024-01-30T13:38:26;5.95;;;3.42;;
41685;SDS011;27370;42.764;23.432;2024-01-30T13:40:52;21.48;;;8.20;;
41685;SDS011;27370;42.764;23.432;2024-01-30T13:43:17;16.30;;;8.18;;
41685;SDS011;27370;42.764;23.432;2024-01-30T13:45:43;21.50;;;11.18;;
41685;SDS011;27370;42.764;23.432;2024-01-30T13:48:09;16.70;;;8.35;;
41685;SDS011;27370;42.764;23.432;2024-01-30T13:50:34;13.45;;;6.82;;
41685;SDS011;27370;42.764;23.432;2024-01-30T13:53:00;5.85;;;3.50;;
41685;SDS011;27370;42.764;23.432;2024-01-30T13:55:25;4.75;;;3.22;;
41685;SDS011;27370;42.764;23.432;2024-01-30T13:57:51;11.27;;;3.05;;
41685;SDS011;27370;42.764;23.432;2024-01-30T14:00:16;5.45;;;3.30;;
41685;SDS011;27370;42.764;23.432;2024-01-30T14:02:42;5.40;;;3.50;;
41685;SDS011;27370;42.764;23.432;2024-01-30T14:05:08;4.45;;;2.78;;
41685;SDS011;27370;42.764;23.432;2024-01-30T14:10:01;4.57;;;2.47;;
41685;SDS011;27370;42.764;23.432;2024-01-30T14:12:26;4.95;;;3.40;;
41685;SDS011;27370;42.764;23.432;2024-01-30T14:14:52;4.47;;;3.28;;
41685;SDS011;27370;42.764;23.432;2024-01-30T14:17:17;3.78;;;2.78;;
41685;SDS011;27370;42.764;23.432;2024-01-30T14:19:42;6.63;;;3.10;;
41685;SDS011;27370;42.764;23.432;2024-01-30T14:22:08;6.88;;;3.95;;
41685;SDS011;27370;42.764;23.432;2024-01-30T14:24:33;4.65;;;2.90;;
41685;SDS011;27370;42.764;23.432;2024-01-30T14:26:59;5.00;;;2.72;;
41685;SDS011;27370;42.764;23.432;2024-01-30T14:29:25;7.78;;;4.75;;
41685;SDS011;27370;42.764;23.432;2024-01-30T14:31:51;4.18;;;3.13;;
41685;SDS011;27370;42.764;23.432;2024-01-30T14:34:16;3.88;;;2.22;;
41685;SDS011;27370;42.764;23.432;2024-01-30T14:36:42;6.25;;;3.75;;